createdAt,value
2019-05-21T00:00:45.632Z,61.70
2019-05-21T00:03:08.153Z,59.70
2019-05-21T00:05:29.375Z,58.57
2019-05-21T00:07:50.766Z,59.90
2019-05-21T00:10:12.583Z,63.20
2019-05-21T00:12:33.791Z,58.67
2019-05-21T00:14:56.912Z,60.27
2019-05-21T00:17:18.190Z,59.83
2019-05-21T00:19:39.417Z,63.33
2019-05-21T00:22:00.618Z,65.17
2019-05-21T00:24:21.887Z,58.80
2019-05-21T00:26:43.102Z,58.60
2019-05-21T00:29:41.843Z,56.37
2019-05-21T00:32:41.995Z,61.80
2019-05-21T00:35:45.790Z,61.27
2019-05-21T00:38:44.575Z,62.80
2019-05-21T00:41:43.366Z,63.53
2019-05-21T00:44:04.950Z,59.53
2019-05-21T00:46:26.154Z,66.23
2019-05-21T00:48:47.369Z,52.50
2019-05-21T00:51:08.799Z,57.63
2019-05-21T00:53:30.034Z,56.13
2019-05-21T00:55:51.271Z,58.93
2019-05-21T00:58:12.489Z,57.37
2019-05-21T01:00:34.005Z,73.07
2019-05-21T01:02:55.203Z,53.00
2019-05-21T01:05:16.525Z,62.70
2019-05-21T01:07:37.739Z,59.27
2019-05-21T01:09:58.973Z,57.07
2019-05-21T01:12:20.178Z,57.13
2019-05-21T01:14:41.430Z,61.63
2019-05-21T01:17:02.717Z,59.50
2019-05-21T01:19:23.937Z,61.40
2019-05-21T01:21:45.156Z,60.93
2019-05-21T01:24:06.370Z,62.80
2019-05-21T01:26:27.620Z,60.23
2019-05-21T01:28:48.906Z,57.73
2019-05-21T01:31:10.233Z,62.20
2019-05-21T01:33:31.426Z,62.03
2019-05-21T01:35:52.906Z,63.07
2019-05-21T01:38:14.106Z,63.57
2019-05-21T01:40:35.424Z,63.90
2019-05-21T01:42:56.610Z,57.00
2019-05-21T01:45:17.878Z,58.70
2019-05-21T01:47:39.115Z,62.73
2019-05-21T01:50:00.683Z,73.40
2019-05-21T01:52:21.907Z,63.23
2019-05-21T01:54:43.138Z,66.57
2019-05-21T01:57:04.575Z,63.30
2019-05-21T01:59:26.147Z,60.87
2019-05-21T02:01:47.358Z,61.90
2019-05-21T02:04:08.558Z,58.83
2019-05-21T02:06:29.889Z,68.33
2019-05-21T02:08:51.095Z,57.00
2019-05-21T02:11:12.542Z,61.40
2019-05-21T02:13:33.762Z,54.83
2019-05-21T02:15:54.994Z,57.47
2019-05-21T02:18:16.272Z,57.73
2019-05-21T02:20:37.489Z,62.93
2019-05-21T02:22:58.701Z,59.27
2019-05-21T02:25:19.938Z,59.40
2019-05-21T02:27:41.149Z,57.10
2019-05-21T02:30:06.730Z,56.40
2019-05-21T02:32:28.414Z,69.80
2019-05-21T02:34:50.040Z,64.40
2019-05-21T02:37:11.268Z,62.43
2019-05-21T02:39:32.471Z,61.13
2019-05-21T02:41:53.791Z,60.07
2019-05-21T02:44:14.973Z,58.97
2019-05-21T02:46:36.190Z,59.60
2019-05-21T02:48:57.400Z,60.30
2019-05-21T02:51:18.704Z,63.43
2019-05-21T02:53:39.901Z,66.80
2019-05-21T02:56:01.102Z,65.60
2019-05-21T02:58:22.306Z,68.73
2019-05-21T03:00:45.522Z,57.10
2019-05-21T03:03:08.874Z,62.63
2019-05-21T03:05:30.067Z,65.20
2019-05-21T03:07:52.586Z,74.87
2019-05-21T03:10:13.783Z,61.40
2019-05-21T03:12:35.000Z,68.93
2019-05-21T03:14:56.182Z,64.43
2019-05-21T03:17:17.626Z,59.33
2019-05-21T03:19:38.910Z,57.67
2019-05-21T03:22:00.141Z,63.83
2019-05-21T03:24:21.438Z,58.73
2019-05-21T03:26:45.188Z,62.50
2019-05-21T03:29:06.382Z,72.87
2019-05-21T03:31:27.688Z,61.77
2019-05-21T03:33:49.033Z,59.70
2019-05-21T03:36:10.601Z,67.67
2019-05-21T03:38:31.839Z,64.13
2019-05-21T03:40:53.117Z,64.20
2019-05-21T03:43:14.346Z,72.77
2019-05-21T03:45:35.568Z,65.03
2019-05-21T03:47:56.882Z,70.07
2019-05-21T03:50:18.182Z,64.67
2019-05-21T03:52:39.412Z,65.90
2019-05-21T03:55:03.002Z,71.67
2019-05-21T03:57:23.736Z,68.13
2019-05-21T03:59:45.960Z,73.87
2019-05-21T04:02:07.157Z,66.10
2019-05-21T04:04:28.360Z,63.07
2019-05-21T04:06:52.336Z,65.37
2019-05-21T04:09:12.942Z,75.27
2019-05-21T04:11:34.140Z,68.63
2019-05-21T04:13:55.564Z,68.83
2019-05-21T04:16:19.140Z,66.13
2019-05-21T04:18:42.646Z,64.77
2019-05-21T04:21:04.094Z,68.50
2019-05-21T04:23:25.443Z,72.53
2019-05-21T04:25:46.734Z,74.77
2019-05-21T04:28:08.067Z,75.77
2019-05-21T04:30:29.928Z,67.53
2019-05-21T04:32:51.588Z,59.07
2019-05-21T04:35:12.871Z,64.43
2019-05-21T04:37:34.250Z,78.37
2019-05-21T04:39:55.530Z,70.47
2019-05-21T04:42:16.758Z,65.30
2019-05-21T04:44:38.171Z,67.53
2019-05-21T04:46:59.482Z,64.67
2019-05-21T04:49:20.688Z,65.20
2019-05-21T04:51:41.886Z,58.67
2019-05-21T04:54:03.103Z,58.40
2019-05-21T04:56:24.955Z,63.97
2019-05-21T04:58:47.265Z,88.27
2019-05-21T05:01:08.480Z,84.27
2019-05-21T05:03:29.690Z,73.53
2019-05-21T05:05:50.896Z,68.40
2019-05-21T05:08:12.114Z,65.70
2019-05-21T05:10:33.521Z,62.43
2019-05-21T05:12:54.738Z,60.03
2019-05-21T05:15:16.150Z,62.87
2019-05-21T05:17:37.494Z,52.53
2019-05-21T05:20:00.011Z,57.83
2019-05-21T05:22:21.224Z,58.53
2019-05-21T05:24:42.440Z,55.83
2019-05-21T05:27:06.136Z,53.50
2019-05-21T05:29:27.392Z,59.70
2019-05-21T05:31:48.712Z,60.87
2019-05-21T05:34:10.139Z,52.73
2019-05-21T05:36:31.430Z,51.53
2019-05-21T05:38:52.634Z,46.23
2019-05-21T05:41:13.834Z,55.63
2019-05-21T05:43:35.054Z,47.53
2019-05-21T05:45:56.255Z,50.40
2019-05-21T05:48:17.850Z,52.43
2019-05-21T05:50:40.966Z,48.40
2019-05-21T05:53:02.290Z,53.73
2019-05-21T05:55:23.503Z,48.67
2019-05-21T05:57:45.005Z,49.87
2019-05-21T06:00:10.018Z,49.67
2019-05-21T06:02:31.334Z,46.57
2019-05-21T06:04:52.563Z,45.73
2019-05-21T06:07:13.861Z,48.93
2019-05-21T06:09:35.235Z,49.10
2019-05-21T06:11:56.533Z,53.20
2019-05-21T06:14:17.861Z,43.50
2019-05-21T06:16:39.458Z,44.57
2019-05-21T06:19:00.720Z,50.37
2019-05-21T06:21:21.945Z,47.03
2019-05-21T06:23:43.234Z,49.03
2019-05-21T06:26:04.935Z,42.00
2019-05-21T06:28:26.375Z,43.30
2019-05-21T06:30:47.583Z,41.60
2019-05-21T06:33:09.003Z,42.43
2019-05-21T06:35:30.202Z,45.87
2019-05-21T06:37:51.415Z,36.87
2019-05-21T06:40:13.740Z,42.73
2019-05-21T06:42:36.070Z,35.73
2019-05-21T06:44:57.291Z,36.17
2019-05-21T06:47:19.106Z,36.93
2019-05-21T06:49:40.399Z,32.83
2019-05-21T06:52:01.601Z,31.23
2019-05-21T06:54:22.807Z,34.97
2019-05-21T06:56:44.048Z,32.20
2019-05-21T06:59:05.252Z,35.00
2019-05-21T07:04:56.689Z,37.37
2019-05-21T07:07:17.974Z,31.47
2019-05-21T07:09:39.210Z,34.03
2019-05-21T07:12:00.428Z,37.33
2019-05-21T07:14:21.675Z,37.53
2019-05-21T07:16:43.009Z,30.67
2019-05-21T07:19:04.199Z,31.47
2019-05-21T07:21:26.633Z,30.90
2019-05-21T07:23:47.925Z,34.90
2019-05-21T07:26:09.150Z,33.00
2019-05-21T07:28:30.340Z,31.13
2019-05-21T07:30:51.664Z,35.33
2019-05-21T07:33:12.964Z,39.10
2019-05-21T07:35:34.935Z,34.90
2019-05-21T07:37:56.223Z,38.13
2019-05-21T07:40:17.889Z,33.33
2019-05-21T07:42:39.236Z,37.33
2019-05-21T07:45:00.525Z,31.63
2019-05-21T07:47:21.737Z,33.43
2019-05-21T07:49:42.937Z,34.70
2019-05-21T07:52:04.364Z,34.07
2019-05-21T07:54:28.056Z,32.60
2019-05-21T07:56:48.750Z,32.27
2019-05-21T07:59:11.263Z,34.90
2019-05-21T08:01:32.476Z,33.87
2019-05-21T08:03:53.769Z,36.07
2019-05-21T08:06:16.101Z,35.80
2019-05-21T08:08:38.613Z,33.50
2019-05-21T08:10:59.857Z,31.87
2019-05-21T08:13:21.053Z,35.80
2019-05-21T08:15:42.291Z,36.37
2019-05-21T08:18:03.507Z,37.87
2019-05-21T08:20:25.210Z,39.33
2019-05-21T08:22:46.428Z,37.90
2019-05-21T08:25:07.826Z,34.60
2019-05-21T08:27:29.152Z,37.57
2019-05-21T08:29:51.074Z,35.57
2019-05-21T08:32:12.586Z,35.70
2019-05-21T08:34:34.017Z,33.97
2019-05-21T08:36:55.239Z,36.13
2019-05-21T08:39:28.331Z,38.43
2019-05-21T08:41:39.598Z,34.27
2019-05-21T08:44:00.803Z,34.23
2019-05-21T08:46:22.633Z,35.40
2019-05-21T08:48:43.818Z,33.63
2019-05-21T08:51:07.651Z,34.60
2019-05-21T08:53:28.854Z,35.10
2019-05-21T08:55:50.409Z,30.40
2019-05-21T08:58:11.625Z,32.77
2019-05-21T09:00:32.852Z,30.27
2019-05-21T09:02:54.144Z,30.03
2019-05-21T09:05:15.569Z,33.93
2019-05-21T09:07:36.898Z,35.10
2019-05-21T09:09:58.221Z,35.87
2019-05-21T09:12:19.426Z,30.03
2019-05-21T09:14:40.929Z,31.30
2019-05-21T09:17:02.347Z,32.33
2019-05-21T09:19:23.646Z,30.43
2019-05-21T09:21:44.866Z,29.03
2019-05-21T09:24:07.078Z,28.50
2019-05-21T09:26:28.375Z,26.33
2019-05-21T09:28:49.587Z,30.97
2019-05-21T09:31:10.782Z,31.37
2019-05-21T09:33:31.994Z,31.10
2019-05-21T09:35:53.191Z,32.87
2019-05-21T09:38:14.422Z,28.87
2019-05-21T09:40:35.629Z,26.40
2019-05-21T09:42:56.839Z,24.97
2019-05-21T09:45:18.127Z,25.60
2019-05-21T09:47:39.326Z,27.13
2019-05-21T09:50:00.760Z,25.70
2019-05-21T09:52:22.042Z,25.37
2019-05-21T09:54:43.254Z,27.27
2019-05-21T09:57:06.371Z,25.13
2019-05-21T09:59:29.487Z,26.13
2019-05-21T10:01:52.698Z,25.30
2019-05-21T10:04:13.909Z,24.13
2019-05-21T10:06:35.204Z,24.30
2019-05-21T10:08:56.524Z,29.90
2019-05-21T10:11:17.723Z,26.90
2019-05-21T10:13:38.930Z,24.37
2019-05-21T10:16:01.516Z,22.83
2019-05-21T10:18:22.931Z,25.93
2019-05-21T10:20:44.120Z,24.47
2019-05-21T10:23:05.445Z,24.57
2019-05-21T10:25:26.728Z,24.70
2019-05-21T10:27:47.927Z,23.13
2019-05-21T10:30:09.743Z,23.73
2019-05-21T10:32:30.982Z,24.73
2019-05-21T10:34:52.390Z,22.47
2019-05-21T10:37:15.685Z,23.97
2019-05-21T10:39:37.214Z,23.27
2019-05-21T10:41:59.946Z,23.80
2019-05-21T10:44:21.180Z,24.10
2019-05-21T10:46:42.456Z,28.03
2019-05-21T10:49:04.000Z,20.97
2019-05-21T10:51:27.188Z,21.07
2019-05-21T10:53:49.677Z,20.73
2019-05-21T10:56:10.950Z,22.33
2019-05-21T10:58:32.159Z,22.53
2019-05-21T11:00:55.263Z,23.77
2019-05-21T11:03:21.051Z,21.90
2019-05-21T11:05:47.336Z,20.77
2019-05-21T11:08:25.238Z,20.93
2019-05-21T11:10:31.820Z,21.10
2019-05-21T11:12:53.106Z,21.47
2019-05-21T11:15:15.223Z,21.70
2019-05-21T11:17:53.392Z,21.43
2019-05-21T11:19:59.543Z,17.33
2019-05-21T11:22:20.817Z,20.17
2019-05-21T11:24:42.036Z,19.77
2019-05-21T11:27:04.790Z,18.83
2019-05-21T11:29:26.480Z,20.03
2019-05-21T11:31:57.164Z,18.13
2019-05-21T11:34:13.706Z,18.90
2019-05-21T11:36:35.306Z,18.03
2019-05-21T11:38:56.554Z,18.27
2019-05-21T11:41:17.766Z,17.27
2019-05-21T11:43:39.050Z,17.97
2019-05-21T11:46:03.061Z,20.57
2019-05-21T11:48:24.382Z,20.07
2019-05-21T11:50:45.677Z,21.27
2019-05-21T11:53:06.876Z,22.10
2019-05-21T11:55:28.201Z,18.83
2019-05-21T11:57:49.390Z,19.97
2019-05-21T12:00:11.530Z,21.53
2019-05-21T12:02:32.788Z,21.93
2019-05-21T12:04:53.989Z,20.93
2019-05-21T12:07:15.207Z,20.37
2019-05-21T12:09:36.489Z,19.27
2019-05-21T12:11:57.694Z,18.83
2019-05-21T12:14:18.912Z,18.43
2019-05-21T12:16:40.184Z,20.03
2019-05-21T12:19:01.381Z,18.40
2019-05-21T12:21:22.583Z,18.23
2019-05-21T12:23:43.988Z,18.50
2019-05-21T12:26:05.389Z,17.67
2019-05-21T12:28:26.581Z,18.30
2019-05-21T12:30:47.816Z,17.60
2019-05-21T12:33:09.003Z,16.40
2019-05-21T12:35:30.198Z,17.03
2019-05-21T12:37:55.424Z,17.03
2019-05-21T12:40:17.545Z,18.77
2019-05-21T12:42:38.926Z,19.63
2019-05-21T12:45:05.449Z,18.73
2019-05-21T12:47:30.640Z,18.07
2019-05-21T12:49:52.371Z,17.73
2019-05-21T12:52:13.720Z,18.10
2019-05-21T12:54:35.048Z,17.80
2019-05-21T12:56:56.334Z,17.63
2019-05-21T12:59:22.768Z,16.73
2019-05-21T13:01:44.065Z,16.67
2019-05-21T13:04:05.889Z,17.03
2019-05-21T13:06:27.178Z,18.57
2019-05-21T13:08:48.509Z,17.30
2019-05-21T13:11:22.974Z,18.33
2019-05-21T13:13:45.002Z,17.83
2019-05-21T13:16:09.822Z,17.27
2019-05-21T13:18:31.609Z,18.00
2019-05-21T13:20:59.692Z,17.33
2019-05-21T13:23:22.957Z,16.47
2019-05-21T13:25:45.239Z,17.47
2019-05-21T13:28:07.413Z,17.73
2019-05-21T13:30:29.039Z,16.30
2019-05-21T13:32:50.226Z,18.73
2019-05-21T13:35:11.826Z,15.77
2019-05-21T13:37:33.703Z,16.93
2019-05-21T13:39:56.762Z,16.70
2019-05-21T13:42:18.106Z,15.23
2019-05-21T13:44:39.421Z,15.07
2019-05-21T13:47:00.694Z,15.83
2019-05-21T13:49:21.890Z,14.13
2019-05-21T13:51:43.081Z,13.80
2019-05-21T13:54:16.166Z,15.53
2019-05-21T13:56:37.735Z,14.63
2019-05-21T13:58:58.968Z,14.53
2019-05-21T14:01:39.340Z,15.17
2019-05-21T14:03:46.852Z,14.33
2019-05-21T14:06:08.237Z,14.70
2019-05-21T14:08:29.605Z,14.03
2019-05-21T14:10:50.878Z,15.87
2019-05-21T14:13:12.183Z,15.90
2019-05-21T14:15:33.695Z,18.67
2019-05-21T14:17:54.894Z,17.90
2019-05-21T14:20:16.991Z,17.97
2019-05-21T14:22:38.271Z,17.00
2019-05-21T14:24:59.587Z,19.00
2019-05-21T14:27:20.827Z,16.60
2019-05-21T14:29:42.122Z,18.07
2019-05-21T14:32:03.418Z,19.57
2019-05-21T14:34:25.706Z,17.37
2019-05-21T14:36:46.913Z,16.20
2019-05-21T14:39:12.554Z,19.90
2019-05-21T14:41:33.755Z,16.70
2019-05-21T14:43:55.048Z,19.23
2019-05-21T14:46:16.324Z,18.17
2019-05-21T14:48:37.534Z,20.67
2019-05-21T14:50:58.729Z,18.50
2019-05-21T14:53:20.036Z,18.13
2019-05-21T14:55:41.331Z,19.73
2019-05-21T14:58:02.555Z,19.37
2019-05-21T15:00:36.020Z,19.10
2019-05-21T15:02:57.316Z,18.60
2019-05-21T15:05:18.603Z,18.90
2019-05-21T15:07:39.805Z,18.60
2019-05-21T15:10:04.122Z,19.13
2019-05-21T15:12:25.340Z,20.03
2019-05-21T15:14:46.555Z,19.67
2019-05-21T15:17:07.872Z,21.27
2019-05-21T15:19:29.147Z,19.40
2019-05-21T15:21:55.629Z,18.80
2019-05-21T15:24:17.043Z,20.00
2019-05-21T15:26:38.675Z,20.80
2019-05-21T15:28:59.907Z,21.40
2019-05-21T15:31:21.608Z,20.57
2019-05-21T15:33:43.135Z,21.50
2019-05-21T15:36:04.326Z,21.70
2019-05-21T15:38:25.842Z,23.93
2019-05-21T15:40:47.070Z,23.83
2019-05-21T15:43:08.279Z,27.10
2019-05-21T15:45:29.580Z,24.93
2019-05-21T15:47:50.779Z,24.37
2019-05-21T15:50:12.214Z,24.67
2019-05-21T15:52:34.504Z,23.23
2019-05-21T15:54:55.712Z,22.73
2019-05-21T15:57:17.005Z,24.30
2019-05-21T15:59:38.258Z,22.13
2019-05-21T16:01:59.657Z,23.03
2019-05-21T16:04:20.938Z,22.27
2019-05-21T16:06:42.426Z,20.70
2019-05-21T16:09:05.720Z,23.23
2019-05-21T16:11:28.929Z,21.67
2019-05-21T16:13:50.386Z,20.23
2019-05-21T16:16:11.577Z,20.63
2019-05-21T16:18:32.793Z,18.00
2019-05-21T16:20:53.994Z,18.23
2019-05-21T16:23:15.566Z,16.63
2019-05-21T16:25:36.913Z,14.07
2019-05-21T16:27:58.227Z,13.80
2019-05-21T16:30:19.629Z,12.70
2019-05-21T16:32:41.417Z,10.97
2019-05-21T16:35:06.706Z,11.30
2019-05-21T16:37:27.898Z,10.73
2019-05-21T16:39:49.185Z,9.40
2019-05-21T16:42:11.428Z,9.93
2019-05-21T16:44:32.759Z,10.40
2019-05-21T16:46:53.966Z,11.00
2019-05-21T16:49:15.182Z,10.03
2019-05-21T16:51:36.379Z,9.83
2019-05-21T16:53:58.779Z,9.17
2019-05-21T16:56:20.120Z,8.77
2019-05-21T16:58:41.910Z,9.40
2019-05-21T17:01:05.840Z,9.97
2019-05-21T17:03:27.288Z,9.57
2019-05-21T17:05:48.802Z,12.17
2019-05-21T17:08:11.310Z,19.03
2019-05-21T17:10:32.514Z,23.57
2019-05-21T17:12:53.813Z,41.20
2019-05-21T17:15:15.030Z,22.90
2019-05-21T17:17:36.554Z,18.70
2019-05-21T17:19:57.899Z,11.13
2019-05-21T17:22:19.104Z,12.47
2019-05-21T17:24:40.387Z,12.00
2019-05-21T17:27:01.822Z,11.90
2019-05-21T17:29:23.148Z,11.47
2019-05-21T17:31:44.473Z,12.37
2019-05-21T17:34:06.115Z,13.63
2019-05-21T17:36:30.946Z,13.87
2019-05-21T17:38:53.384Z,15.70
2019-05-21T17:41:14.603Z,16.97
2019-05-21T17:43:35.820Z,16.73
2019-05-21T17:45:57.217Z,15.57
2019-05-21T17:48:19.995Z,17.70
2019-05-21T17:50:41.444Z,17.87
2019-05-21T17:53:02.779Z,16.70
2019-05-21T17:55:24.354Z,18.07
2019-05-21T17:57:46.184Z,19.27
2019-05-21T18:00:09.814Z,16.97
2019-05-21T18:02:31.432Z,17.50
2019-05-21T18:04:52.809Z,18.23
2019-05-21T18:07:16.114Z,19.57
2019-05-21T18:09:37.515Z,20.03
2019-05-21T18:11:59.649Z,22.27
2019-05-21T18:14:43.389Z,20.57
2019-05-21T18:17:04.990Z,23.30
2019-05-21T18:19:26.573Z,27.07
2019-05-21T18:21:48.306Z,24.73
2019-05-21T18:24:09.692Z,22.80
2019-05-21T18:26:31.016Z,29.13
2019-05-21T18:28:52.219Z,28.03
2019-05-21T18:31:13.669Z,26.33
2019-05-21T18:33:35.162Z,30.03
2019-05-21T18:35:56.379Z,34.50
2019-05-21T18:38:17.597Z,64.57
2019-05-21T18:40:38.930Z,68.07
2019-05-21T18:43:04.686Z,39.33
2019-05-21T18:45:25.570Z,28.70
2019-05-21T18:47:46.868Z,27.60
2019-05-21T18:50:08.749Z,28.93
2019-05-21T18:52:32.431Z,30.00
2019-05-21T18:54:55.604Z,34.10
2019-05-21T18:57:19.140Z,39.27
2019-05-21T18:59:40.539Z,33.50
2019-05-21T19:02:02.592Z,35.70
2019-05-21T19:04:23.890Z,34.97
2019-05-21T19:06:45.202Z,35.30
2019-05-21T19:09:09.015Z,37.73
2019-05-21T19:11:30.586Z,37.20
2019-05-21T19:13:51.901Z,41.20
2019-05-21T19:16:13.444Z,40.50
2019-05-21T19:18:34.930Z,36.60
2019-05-21T19:20:56.163Z,35.73
2019-05-21T19:23:17.602Z,38.33
2019-05-21T19:25:38.858Z,36.50
2019-05-21T19:28:00.161Z,40.43
2019-05-21T19:30:21.499Z,37.73
2019-05-21T19:32:43.766Z,34.10
2019-05-21T19:35:05.853Z,36.30
2019-05-21T19:37:28.336Z,34.50
2019-05-21T19:39:49.756Z,36.17
2019-05-21T19:42:11.324Z,34.17
2019-05-21T19:44:32.870Z,33.33
2019-05-21T19:46:54.074Z,32.27
2019-05-21T19:49:15.276Z,35.03
2019-05-21T19:51:36.832Z,34.67
2019-05-21T19:53:58.031Z,31.67
2019-05-21T19:56:19.557Z,34.37
2019-05-21T19:58:40.971Z,38.73
2019-05-21T20:01:03.892Z,39.37
2019-05-21T20:03:25.810Z,35.27
2019-05-21T20:05:48.062Z,33.33
2019-05-21T20:08:09.362Z,38.67
2019-05-21T20:10:33.978Z,31.40
2019-05-21T20:12:54.485Z,36.27
2019-05-21T20:15:16.194Z,35.03
2019-05-21T20:17:39.320Z,36.33
2019-05-21T20:20:01.739Z,73.33
2019-05-21T20:22:26.205Z,57.63
2019-05-21T20:24:46.766Z,58.17
2019-05-21T20:27:07.979Z,42.93
2019-05-21T20:29:30.491Z,39.70
2019-05-21T20:31:52.317Z,38.13
2019-05-21T20:34:13.712Z,44.10
2019-05-21T20:36:36.008Z,41.40
2019-05-21T20:38:58.265Z,39.80
2019-05-21T20:41:22.140Z,45.57
2019-05-21T20:43:57.885Z,42.57
2019-05-21T20:46:06.930Z,46.00
2019-05-21T20:48:33.583Z,45.47
2019-05-21T20:50:54.851Z,48.47
2019-05-21T20:53:16.256Z,56.73
2019-05-21T20:55:39.660Z,52.60
2019-05-21T20:58:01.131Z,51.23
2019-05-21T21:00:40.225Z,51.83
2019-05-21T21:03:04.230Z,46.00
2019-05-21T21:05:25.940Z,51.53
2019-05-21T21:07:49.331Z,88.43
2019-05-21T21:10:11.340Z,73.10
2019-05-21T21:12:33.632Z,53.23
2019-05-21T21:14:55.270Z,53.67
2019-05-21T21:17:18.760Z,52.40
2019-05-21T21:19:39.976Z,48.43
2019-05-21T21:22:01.253Z,49.37
2019-05-21T21:24:22.875Z,55.23
2019-05-21T21:26:44.364Z,54.13
2019-05-21T21:29:06.594Z,54.23
2019-05-21T21:31:27.882Z,56.43
2019-05-21T21:33:51.961Z,49.37
2019-05-21T21:36:13.451Z,58.03
2019-05-21T21:38:36.795Z,60.73
2019-05-21T21:40:58.096Z,52.30
2019-05-21T21:43:19.406Z,51.70
2019-05-21T21:45:41.315Z,57.43
2019-05-21T21:48:02.894Z,65.93
2019-05-21T21:50:25.470Z,57.13
2019-05-21T21:52:47.263Z,58.40
2019-05-21T21:55:09.474Z,62.60
2019-05-21T21:57:30.779Z,53.57
2019-05-21T21:59:51.994Z,52.73
2019-05-21T22:02:26.133Z,59.47
2019-05-21T22:04:48.231Z,76.00
2019-05-21T22:07:09.522Z,54.50
2019-05-21T22:09:31.235Z,58.40
2019-05-21T22:11:54.432Z,62.80
2019-05-21T22:14:16.975Z,61.90
2019-05-21T22:16:38.604Z,58.20
2019-05-21T22:18:59.923Z,54.00
2019-05-21T22:21:21.825Z,54.80
2019-05-21T22:23:43.817Z,58.87
2019-05-21T22:26:05.126Z,57.83
2019-05-21T22:28:26.417Z,58.97
2019-05-21T22:30:47.935Z,62.87
2019-05-21T22:33:09.134Z,59.97
2019-05-21T22:35:30.446Z,65.30
2019-05-21T22:37:51.659Z,57.70
2019-05-21T22:40:13.094Z,63.57
2019-05-21T22:42:34.488Z,60.23
2019-05-21T22:45:07.437Z,56.77
2019-05-21T22:47:19.618Z,58.53
2019-05-21T22:49:40.829Z,57.03
2019-05-21T22:52:02.040Z,69.07
2019-05-21T22:54:23.947Z,64.13
2019-05-21T22:56:45.242Z,57.43
2019-05-21T22:59:06.453Z,54.47
2019-05-21T23:01:28.157Z,62.77
2019-05-21T23:03:49.706Z,59.20
2019-05-21T23:06:10.918Z,65.43
2019-05-21T23:08:32.710Z,60.17
2019-05-21T23:10:54.010Z,66.17
2019-05-21T23:13:15.205Z,65.13
2019-05-21T23:15:37.609Z,64.57
2019-05-21T23:18:09.901Z,65.73
2019-05-21T23:20:49.334Z,65.47
2019-05-21T23:23:12.592Z,61.43
2019-05-21T23:25:36.038Z,60.73
2019-05-21T23:27:58.527Z,66.87
2019-05-21T23:30:20.600Z,60.60
2019-05-21T23:32:42.706Z,65.00
2019-05-21T23:35:07.106Z,59.70
2019-05-21T23:37:29.697Z,63.43
2019-05-21T23:39:52.477Z,66.37
2019-05-21T23:42:27.172Z,70.10
2019-05-21T23:44:37.875Z,63.93
2019-05-21T23:46:59.066Z,68.40
2019-05-21T23:49:20.267Z,65.50
2019-05-21T23:51:41.755Z,72.07
2019-05-21T23:54:03.751Z,68.77
2019-05-21T23:56:24.946Z,67.03
2019-05-21T23:58:48.121Z,66.83
